createdAt,value
2022-12-22T00:02:25.085Z,149.90
2022-12-22T00:05:12.025Z,149.10
2022-12-22T00:07:58.496Z,142.00
2022-12-22T00:10:45.003Z,142.80
2022-12-22T00:13:32.532Z,146.70
2022-12-22T00:16:19.330Z,133.20
2022-12-22T00:19:05.682Z,139.50
2022-12-22T00:21:52.175Z,136.30
2022-12-22T00:24:38.698Z,140.70
2022-12-22T00:27:31.810Z,147.70
2022-12-22T00:30:18.857Z,151.70
2022-12-22T00:33:05.434Z,145.30
2022-12-22T00:35:52.081Z,153.50
2022-12-22T00:38:40.044Z,146.10
2022-12-22T00:41:26.578Z,145.50
2022-12-22T00:44:13.147Z,149.60
2022-12-22T00:47:00.527Z,136.60
2022-12-22T00:49:48.663Z,140.30
2022-12-22T00:52:37.028Z,143.20
2022-12-22T00:55:32.055Z,143.40
2022-12-22T00:58:19.688Z,148.50
2022-12-22T01:01:06.202Z,149.60
2022-12-22T01:03:52.905Z,145.30
2022-12-22T01:06:39.317Z,142.40
2022-12-22T01:09:28.346Z,147.60
2022-12-22T01:12:14.848Z,139.00
2022-12-22T01:15:01.381Z,142.00
2022-12-22T01:17:48.106Z,140.50
2022-12-22T01:20:34.623Z,147.20
2022-12-22T01:23:21.204Z,144.50
2022-12-22T01:26:07.642Z,147.70
2022-12-22T01:28:54.083Z,130.60
2022-12-22T01:31:48.501Z,131.20
2022-12-22T01:34:35.043Z,136.30
2022-12-22T01:37:21.756Z,132.50
2022-12-22T01:40:08.260Z,134.40
2022-12-22T01:42:54.666Z,140.00
2022-12-22T01:45:46.101Z,138.40
2022-12-22T01:48:37.898Z,136.50
2022-12-22T01:51:27.548Z,137.10
2022-12-22T01:54:15.116Z,137.10
2022-12-22T01:57:03.146Z,138.80
2022-12-22T01:59:49.773Z,146.40
2022-12-22T02:02:37.688Z,147.00
2022-12-22T02:05:26.717Z,150.50
2022-12-22T02:08:52.119Z,161.60
2022-12-22T02:11:58.939Z,142.00
2022-12-22T02:15:07.508Z,136.40
2022-12-22T02:17:59.014Z,136.90
2022-12-22T02:20:59.450Z,128.60
2022-12-22T02:24:05.676Z,125.70
2022-12-22T02:26:58.263Z,124.30
2022-12-22T02:29:47.208Z,122.60
2022-12-22T02:32:33.946Z,114.00
2022-12-22T02:35:20.365Z,114.10
2022-12-22T02:38:28.905Z,109.50
2022-12-22T02:41:38.958Z,113.30
2022-12-22T02:45:14.859Z,123.60
2022-12-22T02:48:11.051Z,113.80
2022-12-22T02:51:08.356Z,120.70
2022-12-22T02:53:54.830Z,119.10
2022-12-22T02:56:42.049Z,124.00
2022-12-22T02:59:28.773Z,112.50
2022-12-22T03:02:16.289Z,111.40
2022-12-22T03:05:02.872Z,111.50
2022-12-22T03:07:49.217Z,108.30
2022-12-22T03:10:35.725Z,110.90
2022-12-22T03:13:22.028Z,104.00
2022-12-22T03:16:08.701Z,101.10
2022-12-22T03:18:55.432Z,102.90
2022-12-22T03:21:41.887Z,96.60
2022-12-22T03:24:28.518Z,97.00
2022-12-22T03:26:56.181Z,96.00
2022-12-22T03:29:23.885Z,96.00
2022-12-22T03:31:51.652Z,90.60
2022-12-22T03:34:19.367Z,92.20
2022-12-22T03:36:47.014Z,92.10
2022-12-22T03:39:14.669Z,92.20
2022-12-22T03:42:01.180Z,91.90
2022-12-22T03:44:47.701Z,84.60
2022-12-22T03:47:15.384Z,89.20
2022-12-22T03:49:43.014Z,83.20
2022-12-22T03:52:10.673Z,80.50
2022-12-22T03:54:38.440Z,81.40
2022-12-22T03:57:06.111Z,84.30
2022-12-22T03:59:33.744Z,74.30
2022-12-22T04:02:01.629Z,75.50
2022-12-22T04:04:29.524Z,75.40
2022-12-22T04:06:57.180Z,74.80
2022-12-22T04:09:27.112Z,77.90
2022-12-22T04:12:14.183Z,70.70
2022-12-22T04:14:41.924Z,72.50
2022-12-22T04:17:09.942Z,71.90
2022-12-22T04:19:37.608Z,69.00
2022-12-22T04:22:05.316Z,69.40
2022-12-22T04:24:32.999Z,67.50
2022-12-22T04:27:00.722Z,64.80
2022-12-22T04:29:28.415Z,61.60
2022-12-22T04:31:56.162Z,63.10
2022-12-22T04:34:24.074Z,58.50
2022-12-22T04:36:51.767Z,57.80
2022-12-22T04:39:19.452Z,61.40
2022-12-22T04:41:47.119Z,59.40
2022-12-22T04:44:14.800Z,58.40
2022-12-22T04:46:42.531Z,59.00
2022-12-22T04:49:10.198Z,57.60
2022-12-22T04:51:37.828Z,55.90
2022-12-22T04:54:05.596Z,60.80
2022-12-22T04:56:33.271Z,59.30
2022-12-22T04:59:00.916Z,59.80
2022-12-22T05:01:28.685Z,59.40
2022-12-22T05:03:56.525Z,62.80
2022-12-22T05:06:24.216Z,62.20
2022-12-22T05:08:51.906Z,58.40
2022-12-22T05:11:19.646Z,59.20
2022-12-22T05:13:47.503Z,60.20
2022-12-22T05:16:16.690Z,55.10
2022-12-22T05:18:45.687Z,56.20
2022-12-22T05:21:23.158Z,59.70
2022-12-22T05:23:50.913Z,55.80
2022-12-22T05:26:19.415Z,59.10
2022-12-22T05:28:48.095Z,53.10
2022-12-22T05:31:18.502Z,55.40
2022-12-22T05:33:46.184Z,56.40
2022-12-22T05:36:14.274Z,53.80
2022-12-22T05:38:42.377Z,53.50
2022-12-22T05:41:10.252Z,53.70
2022-12-22T05:43:38.326Z,52.70
2022-12-22T05:46:08.847Z,51.60
2022-12-22T05:48:38.884Z,51.80
2022-12-22T05:51:08.433Z,50.00
2022-12-22T05:53:36.676Z,52.50
2022-12-22T05:56:04.554Z,50.10
2022-12-22T05:58:33.115Z,47.20
2022-12-22T06:01:01.667Z,46.50
2022-12-22T06:03:30.322Z,48.00
2022-12-22T06:05:59.366Z,48.90
2022-12-22T06:08:27.956Z,47.60
2022-12-22T06:10:58.189Z,50.90
2022-12-22T06:13:26.575Z,50.20
2022-12-22T06:15:54.363Z,48.30
2022-12-22T06:18:22.118Z,49.80
2022-12-22T06:20:53.570Z,47.90
2022-12-22T06:23:22.472Z,49.20
2022-12-22T06:25:55.346Z,47.00
2022-12-22T06:28:23.028Z,46.50
2022-12-22T06:30:50.902Z,45.50
2022-12-22T06:33:19.058Z,48.10
2022-12-22T06:35:50.856Z,47.20
2022-12-22T06:38:21.915Z,47.70
2022-12-22T06:40:49.703Z,46.30
2022-12-22T06:43:17.321Z,47.70
2022-12-22T06:45:45.558Z,44.40
2022-12-22T06:48:13.612Z,46.00
2022-12-22T06:50:41.638Z,47.90
2022-12-22T06:53:10.024Z,45.10
2022-12-22T06:55:37.830Z,45.10
2022-12-22T06:58:05.787Z,45.40
2022-12-22T07:00:34.022Z,44.60
2022-12-22T07:03:01.909Z,45.50
2022-12-22T07:05:31.829Z,45.80
2022-12-22T07:08:05.723Z,45.80
2022-12-22T07:10:54.897Z,44.30
2022-12-22T07:13:24.144Z,45.00
2022-12-22T07:15:59.954Z,44.30
2022-12-22T07:18:34.495Z,46.00
2022-12-22T07:21:03.846Z,45.00
2022-12-22T07:23:32.270Z,45.10
2022-12-22T07:26:00.116Z,47.30
2022-12-22T07:28:28.021Z,44.60
2022-12-22T07:30:55.891Z,43.40
2022-12-22T07:33:23.657Z,43.70
2022-12-22T07:36:09.058Z,45.00
2022-12-22T07:38:38.969Z,44.90
2022-12-22T07:41:26.545Z,46.30
2022-12-22T07:43:56.771Z,46.20
2022-12-22T07:46:26.289Z,44.80
2022-12-22T07:49:12.912Z,43.20
2022-12-22T07:51:42.032Z,43.60
2022-12-22T07:54:11.772Z,44.20
2022-12-22T07:56:40.353Z,42.30
2022-12-22T07:59:08.978Z,40.20
2022-12-22T08:01:36.701Z,40.30
2022-12-22T08:04:04.710Z,41.70
2022-12-22T08:06:33.827Z,39.70
2022-12-22T08:09:02.194Z,40.70
2022-12-22T08:11:29.871Z,40.60
2022-12-22T08:14:01.520Z,38.80
2022-12-22T08:16:30.111Z,38.50
2022-12-22T08:18:57.880Z,37.50
2022-12-22T08:21:25.672Z,38.10
2022-12-22T08:23:53.481Z,37.60
2022-12-22T08:26:29.963Z,38.70
2022-12-22T08:29:20.136Z,40.00
2022-12-22T08:31:48.162Z,39.60
2022-12-22T08:34:16.355Z,38.80
2022-12-22T08:36:47.856Z,38.70
2022-12-22T08:39:16.628Z,39.90
2022-12-22T08:41:50.085Z,37.00
2022-12-22T08:44:26.161Z,37.00
2022-12-22T08:46:55.750Z,38.90
2022-12-22T08:49:24.316Z,39.20
2022-12-22T08:51:52.705Z,38.60
2022-12-22T08:54:21.207Z,39.90
2022-12-22T08:56:49.867Z,39.20
2022-12-22T08:59:17.884Z,41.30
2022-12-22T09:01:50.592Z,40.00
2022-12-22T09:04:21.083Z,38.50
2022-12-22T09:06:48.877Z,39.70
2022-12-22T09:09:16.642Z,39.50
2022-12-22T09:11:44.551Z,38.00
2022-12-22T09:14:12.951Z,38.00
2022-12-22T09:16:41.004Z,38.00
2022-12-22T09:19:08.701Z,38.00
2022-12-22T09:21:36.573Z,39.90
2022-12-22T09:24:04.678Z,38.30
2022-12-22T09:26:32.826Z,37.00
2022-12-22T09:29:00.506Z,37.90
2022-12-22T09:31:29.733Z,37.10
2022-12-22T09:33:58.273Z,38.30
2022-12-22T09:36:29.092Z,38.50
2022-12-22T09:38:57.751Z,38.60
2022-12-22T09:41:32.982Z,40.40
2022-12-22T09:44:16.768Z,41.50
2022-12-22T09:46:44.550Z,41.00
2022-12-22T09:49:14.973Z,43.30
2022-12-22T09:51:44.840Z,44.40
2022-12-22T09:54:12.973Z,46.30
2022-12-22T09:56:40.647Z,50.70
2022-12-22T09:59:16.502Z,49.10
2022-12-22T10:01:53.590Z,50.40
2022-12-22T10:04:46.679Z,50.10
2022-12-22T10:07:27.716Z,48.60
2022-12-22T10:09:55.543Z,48.10
2022-12-22T10:12:25.516Z,47.90
2022-12-22T10:14:54.740Z,48.30
2022-12-22T10:17:29.024Z,47.50
2022-12-22T10:20:20.951Z,49.00
2022-12-22T10:22:53.399Z,49.50
2022-12-22T10:25:52.330Z,48.10
2022-12-22T10:28:27.378Z,49.20
2022-12-22T10:31:17.957Z,49.00
2022-12-22T10:33:48.022Z,48.30
2022-12-22T10:36:26.336Z,48.00
2022-12-22T10:38:59.524Z,48.90
2022-12-22T10:41:30.662Z,48.90
2022-12-22T10:44:01.953Z,50.00
2022-12-22T10:46:35.671Z,48.90
2022-12-22T10:49:17.602Z,49.20
2022-12-22T10:51:48.601Z,48.10
2022-12-22T10:54:33.569Z,52.30
2022-12-22T10:57:04.807Z,52.40
2022-12-22T10:59:34.057Z,54.40
2022-12-22T11:02:28.230Z,56.40
2022-12-22T11:05:10.384Z,55.30
2022-12-22T11:07:42.980Z,57.10
2022-12-22T11:10:36.922Z,55.60
2022-12-22T11:13:32.418Z,54.60
2022-12-22T11:16:04.131Z,55.70
2022-12-22T11:18:53.296Z,54.20
2022-12-22T11:21:39.287Z,56.20
2022-12-22T11:24:25.627Z,55.80
2022-12-22T11:27:13.521Z,60.00
2022-12-22T11:30:04.881Z,61.30
2022-12-22T11:32:43.352Z,63.00
2022-12-22T11:35:19.820Z,62.10
2022-12-22T11:37:56.346Z,62.00
2022-12-22T11:40:35.719Z,62.80
2022-12-22T11:43:18.142Z,68.00
2022-12-22T11:45:58.196Z,70.40
2022-12-22T11:48:45.034Z,72.20
2022-12-22T11:51:36.001Z,77.50
2022-12-22T11:54:35.749Z,84.60
2022-12-22T11:57:25.008Z,90.20
2022-12-22T12:00:11.966Z,95.70
2022-12-22T12:02:58.909Z,98.20
2022-12-22T12:05:54.759Z,91.80
2022-12-22T12:08:59.873Z,84.20
2022-12-22T12:11:38.499Z,86.80
2022-12-22T12:14:09.250Z,85.70
2022-12-22T12:16:40.902Z,82.60
2022-12-22T12:19:35.307Z,83.00
2022-12-22T12:22:10.018Z,81.30
2022-12-22T12:24:42.408Z,75.40
2022-12-22T12:27:45.608Z,74.00
2022-12-22T12:30:38.648Z,73.30
2022-12-22T12:33:13.612Z,69.40
2022-12-22T12:35:59.182Z,64.80
2022-12-22T12:39:09.724Z,62.20
2022-12-22T12:41:52.540Z,62.70
2022-12-22T12:44:23.885Z,65.50
2022-12-22T12:46:54.123Z,62.30
2022-12-22T12:49:33.909Z,60.80
2022-12-22T12:52:07.559Z,62.70
2022-12-22T12:54:41.901Z,60.50
2022-12-22T12:57:26.975Z,61.80
2022-12-22T12:59:59.503Z,61.30
2022-12-22T13:02:27.557Z,55.40
2022-12-22T13:05:07.913Z,54.40
2022-12-22T13:08:06.741Z,52.70
2022-12-22T13:10:55.966Z,51.40
2022-12-22T13:13:26.235Z,53.40
2022-12-22T13:16:00.118Z,52.80
2022-12-22T13:18:33.858Z,50.60
2022-12-22T13:21:42.476Z,50.60
2022-12-22T13:24:26.733Z,49.50
2022-12-22T13:26:56.253Z,48.80
2022-12-22T13:29:40.091Z,48.40
2022-12-22T13:32:19.628Z,45.30
2022-12-22T13:37:45.618Z,44.90
2022-12-22T13:40:23.747Z,44.40
2022-12-22T13:43:03.663Z,45.20
2022-12-22T13:45:56.492Z,42.10
2022-12-22T13:48:38.395Z,41.70
2022-12-22T13:51:17.299Z,43.10
2022-12-22T13:56:46.156Z,41.30
2022-12-22T13:59:35.225Z,42.60
2022-12-22T14:02:13.103Z,39.20
2022-12-22T14:04:44.087Z,40.60
2022-12-22T14:07:13.243Z,39.30
2022-12-22T14:09:51.665Z,37.10
2022-12-22T14:12:22.124Z,37.00
2022-12-22T14:14:51.501Z,36.60
2022-12-22T14:17:32.836Z,34.90
2022-12-22T14:20:03.704Z,34.60
2022-12-22T14:22:45.411Z,35.70
2022-12-22T14:25:19.529Z,34.30
2022-12-22T14:27:49.196Z,34.00
2022-12-22T14:30:25.087Z,35.20
2022-12-22T14:32:57.631Z,34.10
2022-12-22T14:35:31.172Z,33.10
2022-12-22T14:38:05.059Z,32.80
2022-12-22T14:40:36.007Z,34.80
2022-12-22T14:43:06.192Z,33.00
2022-12-22T14:45:34.076Z,32.00
2022-12-22T14:48:01.903Z,32.30
2022-12-22T14:50:29.983Z,31.40
2022-12-22T14:52:59.441Z,29.90
2022-12-22T14:55:49.147Z,31.80
2022-12-22T14:58:31.211Z,30.20
2022-12-22T15:01:13.887Z,32.50
2022-12-22T15:03:42.057Z,29.40
2022-12-22T15:06:24.396Z,30.00
2022-12-22T15:08:53.571Z,30.50
2022-12-22T15:11:23.848Z,30.50
2022-12-22T15:13:51.834Z,31.30
2022-12-22T15:16:21.689Z,30.40
2022-12-22T15:18:53.134Z,30.10
2022-12-22T15:21:20.777Z,28.70
2022-12-22T15:23:48.690Z,28.10
2022-12-22T15:26:16.494Z,28.70
2022-12-22T15:28:44.160Z,28.50
2022-12-22T15:31:16.695Z,29.10
2022-12-22T15:33:45.323Z,30.30
2022-12-22T15:36:13.954Z,29.00
2022-12-22T15:38:41.648Z,28.40
2022-12-22T15:41:09.328Z,29.30
2022-12-22T15:43:57.082Z,27.10
2022-12-22T15:46:24.925Z,28.60
2022-12-22T15:48:53.017Z,27.20
2022-12-22T15:51:24.341Z,28.30
2022-12-22T15:53:52.129Z,27.70
2022-12-22T15:56:23.395Z,30.30
2022-12-22T15:58:51.335Z,27.00
2022-12-22T16:01:19.122Z,27.20
2022-12-22T16:03:47.027Z,26.70
2022-12-22T16:06:16.623Z,26.80
2022-12-22T16:08:49.465Z,27.00
2022-12-22T16:11:18.366Z,26.10
2022-12-22T16:13:47.228Z,27.30
2022-12-22T16:16:14.986Z,26.60
2022-12-22T16:18:42.796Z,27.00
2022-12-22T16:21:16.939Z,25.90
2022-12-22T16:23:47.064Z,27.70
2022-12-22T16:26:17.407Z,25.50
2022-12-22T16:28:45.118Z,24.50
2022-12-22T16:31:18.915Z,25.20
2022-12-22T16:33:46.808Z,26.70
2022-12-22T16:36:14.865Z,25.40
2022-12-22T16:38:43.541Z,26.40
2022-12-22T16:41:19.462Z,25.20
2022-12-22T16:46:37.768Z,24.60
2022-12-22T16:49:08.088Z,23.90
2022-12-22T16:51:38.279Z,25.80
2022-12-22T16:54:06.221Z,27.00
2022-12-22T16:56:34.887Z,28.60
2022-12-22T16:59:04.522Z,27.20
2022-12-22T17:01:40.340Z,26.20
2022-12-22T17:04:10.845Z,29.50
2022-12-22T17:06:39.540Z,26.90
2022-12-22T17:09:12.998Z,25.90
2022-12-22T17:11:40.651Z,27.50
2022-12-22T17:14:25.723Z,27.50
2022-12-22T17:16:53.485Z,26.50
2022-12-22T17:19:21.696Z,27.80
2022-12-22T17:21:50.053Z,28.00
2022-12-22T17:24:25.872Z,28.20
2022-12-22T17:27:01.990Z,26.80
2022-12-22T17:29:30.072Z,27.30
2022-12-22T17:31:57.755Z,29.20
2022-12-22T17:34:26.484Z,29.00
2022-12-22T17:36:56.710Z,28.70
2022-12-22T17:39:25.629Z,29.90
2022-12-22T17:41:57.107Z,28.50
2022-12-22T17:44:26.849Z,28.00
2022-12-22T17:46:54.894Z,29.70
2022-12-22T17:49:22.928Z,27.60
2022-12-22T17:51:50.713Z,28.70
2022-12-22T17:54:23.475Z,29.00
2022-12-22T17:56:51.600Z,29.90
2022-12-22T17:59:19.344Z,30.70
2022-12-22T18:01:47.180Z,31.50
2022-12-22T18:04:15.315Z,30.70
2022-12-22T18:06:43.091Z,30.70
2022-12-22T18:09:19.408Z,29.10
2022-12-22T18:11:47.893Z,33.80
2022-12-22T18:14:16.268Z,32.50
2022-12-22T18:16:44.065Z,33.50
2022-12-22T18:19:11.846Z,29.90
2022-12-22T18:21:39.857Z,27.90
2022-12-22T18:24:15.815Z,29.30
2022-12-22T18:26:43.622Z,30.20
2022-12-22T18:29:17.203Z,29.90
2022-12-22T18:31:45.265Z,28.80
2022-12-22T18:34:13.089Z,29.20
2022-12-22T18:36:42.452Z,28.70
2022-12-22T18:39:17.925Z,29.10
2022-12-22T18:41:45.986Z,29.90
2022-12-22T18:44:18.120Z,30.60
2022-12-22T18:46:47.313Z,29.80
2022-12-22T18:49:15.482Z,30.50
2022-12-22T18:51:44.710Z,30.10
2022-12-22T18:54:21.809Z,31.30
2022-12-22T18:56:51.938Z,31.20
2022-12-22T18:59:24.940Z,31.80
2022-12-22T19:01:52.954Z,32.60
2022-12-22T19:04:20.841Z,31.20
2022-12-22T19:06:48.501Z,34.20
2022-12-22T19:09:16.239Z,34.10
2022-12-22T19:11:44.096Z,33.10
2022-12-22T19:14:17.115Z,34.30
2022-12-22T19:16:45.778Z,34.70
2022-12-22T19:19:18.954Z,34.90
2022-12-22T19:21:48.729Z,37.20
2022-12-22T19:24:16.589Z,36.30
2022-12-22T19:26:44.290Z,35.40
2022-12-22T19:29:13.970Z,36.20
2022-12-22T19:31:43.346Z,39.40
2022-12-22T19:34:16.727Z,40.90
2022-12-22T19:36:44.571Z,38.80
2022-12-22T19:39:12.247Z,41.40
2022-12-22T19:41:43.765Z,41.60
2022-12-22T19:44:31.763Z,51.10
2022-12-22T19:47:00.161Z,47.50
2022-12-22T19:49:29.312Z,47.70
2022-12-22T19:51:57.832Z,43.90
2022-12-22T19:54:25.559Z,46.40
2022-12-22T19:56:56.674Z,45.10
2022-12-22T19:59:29.627Z,44.30
2022-12-22T20:02:00.536Z,44.50
2022-12-22T20:04:28.606Z,42.50
2022-12-22T20:06:56.431Z,43.70
2022-12-22T20:09:24.161Z,42.50
2022-12-22T20:11:51.769Z,43.80
2022-12-22T20:14:19.556Z,43.30
2022-12-22T20:16:47.386Z,45.60
2022-12-22T20:19:16.018Z,44.50
2022-12-22T20:21:44.121Z,45.20
2022-12-22T20:24:20.341Z,45.30
2022-12-22T20:26:53.804Z,43.50
2022-12-22T20:29:24.359Z,46.20
2022-12-22T20:31:52.327Z,46.50
2022-12-22T20:34:20.603Z,44.40
2022-12-22T20:36:48.350Z,44.20
2022-12-22T20:39:18.363Z,47.00
2022-12-22T20:41:52.583Z,44.70
2022-12-22T20:44:21.548Z,45.10
2022-12-22T20:46:49.258Z,46.90
2022-12-22T20:49:16.913Z,43.30
2022-12-22T20:51:44.621Z,41.40
2022-12-22T20:54:14.784Z,43.00
2022-12-22T20:56:44.107Z,40.10
2022-12-22T20:59:14.699Z,41.10
2022-12-22T21:01:42.553Z,40.70
2022-12-22T21:04:10.325Z,38.70
2022-12-22T21:06:49.397Z,38.30
2022-12-22T21:09:17.772Z,38.80
2022-12-22T21:11:45.976Z,36.20
2022-12-22T21:14:13.736Z,37.70
2022-12-22T21:16:42.238Z,37.40
2022-12-22T21:19:18.832Z,35.10
2022-12-22T21:21:46.960Z,36.90
2022-12-22T21:24:14.654Z,38.50
2022-12-22T21:26:45.955Z,38.10
2022-12-22T21:29:17.029Z,47.50
2022-12-22T21:31:44.657Z,45.00
2022-12-22T21:34:12.301Z,59.10
2022-12-22T21:36:43.604Z,50.90
2022-12-22T21:39:32.743Z,41.70
2022-12-22T21:42:00.430Z,42.10
2022-12-22T21:44:29.302Z,40.80
2022-12-22T21:46:57.139Z,41.20
2022-12-22T21:49:27.675Z,40.10
2022-12-22T21:51:55.568Z,42.50
2022-12-22T21:54:24.793Z,41.00
2022-12-22T21:56:53.600Z,43.00
2022-12-22T21:59:22.196Z,41.30
2022-12-22T22:01:52.780Z,44.90
2022-12-22T22:04:21.015Z,43.00
2022-12-22T22:06:48.904Z,43.00
2022-12-22T22:09:16.623Z,41.10
2022-12-22T22:12:03.073Z,40.50
2022-12-22T22:14:30.842Z,40.50
2022-12-22T22:16:58.495Z,41.60
2022-12-22T22:19:26.107Z,41.00
2022-12-22T22:21:53.731Z,40.30
2022-12-22T22:24:21.400Z,39.70
2022-12-22T22:26:51.526Z,43.20
2022-12-22T22:29:19.283Z,42.70
2022-12-22T22:31:46.951Z,43.50
2022-12-22T22:34:15.671Z,45.50
2022-12-22T22:36:43.325Z,45.00
2022-12-22T22:39:11.026Z,45.90
2022-12-22T22:41:43.312Z,46.20
2022-12-22T22:44:12.151Z,47.20
2022-12-22T22:46:40.621Z,47.40
2022-12-22T22:49:09.202Z,48.20
2022-12-22T22:51:37.101Z,51.50
2022-12-22T22:54:04.811Z,49.70
2022-12-22T22:56:32.477Z,51.20
2022-12-22T22:59:00.110Z,51.90
2022-12-22T23:01:27.891Z,50.20
2022-12-22T23:03:55.754Z,49.50
2022-12-22T23:06:23.533Z,48.40
2022-12-22T23:08:51.313Z,48.20
2022-12-22T23:11:19.001Z,49.40
2022-12-22T23:13:46.943Z,49.60
2022-12-22T23:16:14.873Z,52.50
2022-12-22T23:18:42.656Z,51.20
2022-12-22T23:21:11.183Z,51.00
2022-12-22T23:23:38.853Z,55.00
2022-12-22T23:26:06.696Z,50.80
2022-12-22T23:28:34.400Z,52.00
2022-12-22T23:31:02.355Z,51.30
2022-12-22T23:33:33.127Z,50.10
2022-12-22T23:36:00.865Z,51.70
2022-12-22T23:38:28.576Z,51.50
2022-12-22T23:41:04.474Z,51.50
2022-12-22T23:43:32.340Z,53.70
2022-12-22T23:46:00.179Z,53.20
2022-12-22T23:48:27.935Z,55.20
2022-12-22T23:50:55.604Z,58.90
2022-12-22T23:53:23.243Z,65.80
2022-12-22T23:55:51.012Z,61.90
2022-12-22T23:58:18.663Z,66.00
